sensor_id;sensor_type;location;lat;lon;timestamp;P1;durP1;ratioP1;P2;durP2;ratioP2
44588;SDS011;30298;52.562;13.414;2023-07-20T00:01:07;6.27;;;5.67;;
44588;SDS011;30298;52.562;13.414;2023-07-20T00:03:32;7.03;;;5.63;;
44588;SDS011;30298;52.562;13.414;2023-07-20T00:05:58;7.27;;;5.43;;
44588;SDS011;30298;52.562;13.414;2023-07-20T00:08:23;6.35;;;5.53;;
44588;SDS011;30298;52.562;13.414;2023-07-20T00:10:49;6.80;;;5.53;;
44588;SDS011;30298;52.562;13.414;2023-07-20T00:13:14;8.52;;;6.30;;
44588;SDS011;30298;52.562;13.414;2023-07-20T00:18:06;6.43;;;5.60;;
44588;SDS011;30298;52.562;13.414;2023-07-20T00:20:31;8.37;;;5.63;;
44588;SDS011;30298;52.562;13.414;2023-07-20T00:22:57;8.93;;;5.77;;
44588;SDS011;30298;52.562;13.414;2023-07-20T00:27:48;8.75;;;6.03;;
44588;SDS011;30298;52.562;13.414;2023-07-20T00:30:13;6.77;;;5.77;;
44588;SDS011;30298;52.562;13.414;2023-07-20T00:32:39;9.30;;;6.55;;
44588;SDS011;30298;52.562;13.414;2023-07-20T00:35:04;8.13;;;6.27;;
44588;SDS011;30298;52.562;13.414;2023-07-20T00:37:29;7.65;;;5.82;;
44588;SDS011;30298;52.562;13.414;2023-07-20T00:39:55;7.28;;;6.45;;
44588;SDS011;30298;52.562;13.414;2023-07-20T00:42:20;8.73;;;5.77;;
44588;SDS011;30298;52.562;13.414;2023-07-20T00:44:45;8.10;;;5.83;;
44588;SDS011;30298;52.562;13.414;2023-07-20T00:47:10;7.67;;;6.33;;
44588;SDS011;30298;52.562;13.414;2023-07-20T00:49:36;7.47;;;6.75;;
44588;SDS011;30298;52.562;13.414;2023-07-20T00:52:02;7.25;;;6.40;;
44588;SDS011;30298;52.562;13.414;2023-07-20T00:56:53;9.70;;;6.40;;
44588;SDS011;30298;52.562;13.414;2023-07-20T00:59:19;9.43;;;6.47;;
44588;SDS011;30298;52.562;13.414;2023-07-20T01:01:45;10.55;;;7.22;;
44588;SDS011;30298;52.562;13.414;2023-07-20T01:04:10;7.30;;;6.50;;
44588;SDS011;30298;52.562;13.414;2023-07-20T01:09:07;8.48;;;6.22;;
44588;SDS011;30298;52.562;13.414;2023-07-20T01:14:37;7.05;;;6.07;;
44588;SDS011;30298;52.562;13.414;2023-07-20T01:17:05;7.22;;;6.53;;
44588;SDS011;30298;52.562;13.414;2023-07-20T01:19:30;7.97;;;6.83;;
44588;SDS011;30298;52.562;13.414;2023-07-20T01:22:00;10.23;;;7.55;;
44588;SDS011;30298;52.562;13.414;2023-07-20T01:26:57;8.87;;;7.77;;
44588;SDS011;30298;52.562;13.414;2023-07-20T01:32:00;8.90;;;6.80;;
44588;SDS011;30298;52.562;13.414;2023-07-20T01:34:28;8.13;;;6.45;;
44588;SDS011;30298;52.562;13.414;2023-07-20T01:36:54;8.13;;;7.20;;
44588;SDS011;30298;52.562;13.414;2023-07-20T01:39:20;10.48;;;7.70;;
44588;SDS011;30298;52.562;13.414;2023-07-20T01:41:45;9.63;;;7.88;;
44588;SDS011;30298;52.562;13.414;2023-07-20T01:44:12;8.82;;;7.07;;
44588;SDS011;30298;52.562;13.414;2023-07-20T01:49:02;8.55;;;7.07;;
44588;SDS011;30298;52.562;13.414;2023-07-20T01:51:28;8.60;;;7.00;;
44588;SDS011;30298;52.562;13.414;2023-07-20T01:53:53;11.23;;;7.30;;
44588;SDS011;30298;52.562;13.414;2023-07-20T01:56:18;12.87;;;8.77;;
44588;SDS011;30298;52.562;13.414;2023-07-20T01:58:43;10.07;;;8.57;;
44588;SDS011;30298;52.562;13.414;2023-07-20T02:01:09;10.80;;;8.60;;
44588;SDS011;30298;52.562;13.414;2023-07-20T02:03:34;12.20;;;8.30;;
44588;SDS011;30298;52.562;13.414;2023-07-20T02:06:00;10.48;;;8.48;;
44588;SDS011;30298;52.562;13.414;2023-07-20T02:08:26;9.67;;;7.73;;
44588;SDS011;30298;52.562;13.414;2023-07-20T02:10:51;10.93;;;7.47;;
44588;SDS011;30298;52.562;13.414;2023-07-20T02:13:16;8.48;;;7.25;;
44588;SDS011;30298;52.562;13.414;2023-07-20T02:15:42;10.13;;;7.97;;
44588;SDS011;30298;52.562;13.414;2023-07-20T02:18:12;8.82;;;7.57;;
44588;SDS011;30298;52.562;13.414;2023-07-20T02:20:37;9.63;;;8.03;;
44588;SDS011;30298;52.562;13.414;2023-07-20T02:23:02;10.53;;;8.00;;
44588;SDS011;30298;52.562;13.414;2023-07-20T02:25:28;10.03;;;7.87;;
44588;SDS011;30298;52.562;13.414;2023-07-20T02:27:53;12.90;;;7.87;;
44588;SDS011;30298;52.562;13.414;2023-07-20T02:30:18;9.23;;;8.23;;
44588;SDS011;30298;52.562;13.414;2023-07-20T02:32:44;11.67;;;9.30;;
44588;SDS011;30298;52.562;13.414;2023-07-20T02:35:13;11.00;;;9.43;;
44588;SDS011;30298;52.562;13.414;2023-07-20T02:37:38;10.95;;;9.60;;
44588;SDS011;30298;52.562;13.414;2023-07-20T02:40:04;11.57;;;9.55;;
44588;SDS011;30298;52.562;13.414;2023-07-20T02:42:30;13.85;;;9.93;;
44588;SDS011;30298;52.562;13.414;2023-07-20T02:44:55;12.10;;;9.10;;
44588;SDS011;30298;52.562;13.414;2023-07-20T02:47:20;12.73;;;11.37;;
44588;SDS011;30298;52.562;13.414;2023-07-20T02:49:45;13.00;;;11.27;;
44588;SDS011;30298;52.562;13.414;2023-07-20T02:52:11;15.37;;;11.90;;
44588;SDS011;30298;52.562;13.414;2023-07-20T02:54:36;13.27;;;11.03;;
44588;SDS011;30298;52.562;13.414;2023-07-20T02:57:01;13.30;;;11.27;;
44588;SDS011;30298;52.562;13.414;2023-07-20T02:59:27;14.17;;;11.43;;
44588;SDS011;30298;52.562;13.414;2023-07-20T03:01:52;14.00;;;12.27;;
44588;SDS011;30298;52.562;13.414;2023-07-20T03:04:20;16.17;;;11.50;;
44588;SDS011;30298;52.562;13.414;2023-07-20T03:06:46;16.08;;;12.10;;
44588;SDS011;30298;52.562;13.414;2023-07-20T03:09:11;14.30;;;12.47;;
44588;SDS011;30298;52.562;13.414;2023-07-20T03:11:37;15.05;;;12.18;;
44588;SDS011;30298;52.562;13.414;2023-07-20T03:14:02;17.70;;;12.80;;
44588;SDS011;30298;52.562;13.414;2023-07-20T03:16:28;17.00;;;13.23;;
44588;SDS011;30298;52.562;13.414;2023-07-20T03:18:53;20.00;;;13.03;;
44588;SDS011;30298;52.562;13.414;2023-07-20T03:21:18;18.60;;;13.77;;
44588;SDS011;30298;52.562;13.414;2023-07-20T03:23:43;18.23;;;13.27;;
44588;SDS011;30298;52.562;13.414;2023-07-20T03:26:09;20.83;;;13.17;;
44588;SDS011;30298;52.562;13.414;2023-07-20T03:28:37;20.98;;;13.52;;
44588;SDS011;30298;52.562;13.414;2023-07-20T03:31:03;19.85;;;13.57;;
44588;SDS011;30298;52.562;13.414;2023-07-20T03:33:29;20.03;;;13.40;;
44588;SDS011;30298;52.562;13.414;2023-07-20T03:38:20;16.70;;;12.65;;
44588;SDS011;30298;52.562;13.414;2023-07-20T03:40:49;21.15;;;14.73;;
44588;SDS011;30298;52.562;13.414;2023-07-20T03:43:14;16.00;;;12.95;;
44588;SDS011;30298;52.562;13.414;2023-07-20T03:45:40;21.67;;;15.68;;
44588;SDS011;30298;52.562;13.414;2023-07-20T03:48:05;20.63;;;15.77;;
44588;SDS011;30298;52.562;13.414;2023-07-20T03:50:31;18.83;;;14.20;;
44588;SDS011;30298;52.562;13.414;2023-07-20T03:52:56;17.17;;;13.97;;
44588;SDS011;30298;52.562;13.414;2023-07-20T03:55:21;17.57;;;13.37;;
44588;SDS011;30298;52.562;13.414;2023-07-20T03:57:46;19.80;;;13.40;;
44588;SDS011;30298;52.562;13.414;2023-07-20T04:00:12;21.15;;;15.50;;
44588;SDS011;30298;52.562;13.414;2023-07-20T04:02:39;19.42;;;13.85;;
44588;SDS011;30298;52.562;13.414;2023-07-20T04:05:05;19.77;;;14.77;;
44588;SDS011;30298;52.562;13.414;2023-07-20T04:07:30;17.20;;;14.23;;
44588;SDS011;30298;52.562;13.414;2023-07-20T04:09:55;18.47;;;13.23;;
44588;SDS011;30298;52.562;13.414;2023-07-20T04:12:21;16.02;;;13.65;;
44588;SDS011;30298;52.562;13.414;2023-07-20T04:14:46;19.03;;;14.17;;
44588;SDS011;30298;52.562;13.414;2023-07-20T04:17:11;18.27;;;14.30;;
44588;SDS011;30298;52.562;13.414;2023-07-20T04:19:38;19.17;;;14.70;;
44588;SDS011;30298;52.562;13.414;2023-07-20T04:22:03;19.42;;;14.25;;
44588;SDS011;30298;52.562;13.414;2023-07-20T04:24:29;18.20;;;13.98;;
44588;SDS011;30298;52.562;13.414;2023-07-20T04:26:54;18.13;;;14.00;;
44588;SDS011;30298;52.562;13.414;2023-07-20T04:29:19;18.85;;;14.30;;
44588;SDS011;30298;52.562;13.414;2023-07-20T04:31:44;17.87;;;13.97;;
44588;SDS011;30298;52.562;13.414;2023-07-20T04:34:10;18.50;;;13.83;;
44588;SDS011;30298;52.562;13.414;2023-07-20T04:36:35;16.25;;;13.60;;
44588;SDS011;30298;52.562;13.414;2023-07-20T04:39:01;14.27;;;12.67;;
44588;SDS011;30298;52.562;13.414;2023-07-20T04:41:26;20.37;;;12.43;;
44588;SDS011;30298;52.562;13.414;2023-07-20T04:43:51;14.77;;;11.93;;
44588;SDS011;30298;52.562;13.414;2023-07-20T04:46:17;15.33;;;11.83;;
44588;SDS011;30298;52.562;13.414;2023-07-20T04:48:43;16.40;;;12.90;;
44588;SDS011;30298;52.562;13.414;2023-07-20T04:51:09;11.37;;;9.13;;
44588;SDS011;30298;52.562;13.414;2023-07-20T04:56:00;14.30;;;11.75;;
44588;SDS011;30298;52.562;13.414;2023-07-20T04:58:25;16.90;;;12.37;;
44588;SDS011;30298;52.562;13.414;2023-07-20T05:00:51;14.30;;;11.63;;
44588;SDS011;30298;52.562;13.414;2023-07-20T05:03:16;13.13;;;11.02;;
44588;SDS011;30298;52.562;13.414;2023-07-20T05:05:42;12.63;;;10.43;;
44588;SDS011;30298;52.562;13.414;2023-07-20T05:08:07;12.32;;;9.70;;
44588;SDS011;30298;52.562;13.414;2023-07-20T05:10:32;10.87;;;9.47;;
44588;SDS011;30298;52.562;13.414;2023-07-20T05:12:58;11.57;;;9.80;;
44588;SDS011;30298;52.562;13.414;2023-07-20T05:15:23;13.88;;;10.05;;
44588;SDS011;30298;52.562;13.414;2023-07-20T05:17:49;11.52;;;9.05;;
44588;SDS011;30298;52.562;13.414;2023-07-20T05:20:14;10.50;;;8.07;;
44588;SDS011;30298;52.562;13.414;2023-07-20T05:22:39;12.45;;;8.77;;
44588;SDS011;30298;52.562;13.414;2023-07-20T05:25:08;11.90;;;8.75;;
44588;SDS011;30298;52.562;13.414;2023-07-20T05:27:34;10.40;;;8.38;;
44588;SDS011;30298;52.562;13.414;2023-07-20T05:29:59;11.02;;;9.25;;
44588;SDS011;30298;52.562;13.414;2023-07-20T05:32:25;11.50;;;9.38;;
44588;SDS011;30298;52.562;13.414;2023-07-20T05:34:53;15.03;;;9.47;;
44588;SDS011;30298;52.562;13.414;2023-07-20T05:37:19;14.43;;;10.15;;
44588;SDS011;30298;52.562;13.414;2023-07-20T05:39:44;10.40;;;9.25;;
44588;SDS011;30298;52.562;13.414;2023-07-20T05:42:12;12.07;;;8.70;;
44588;SDS011;30298;52.562;13.414;2023-07-20T05:44:37;13.50;;;9.35;;
44588;SDS011;30298;52.562;13.414;2023-07-20T05:47:03;17.23;;;9.93;;
44588;SDS011;30298;52.562;13.414;2023-07-20T05:49:28;13.20;;;9.02;;
44588;SDS011;30298;52.562;13.414;2023-07-20T05:51:54;30.52;;;9.60;;
44588;SDS011;30298;52.562;13.414;2023-07-20T05:56:45;10.85;;;9.18;;
44588;SDS011;30298;52.562;13.414;2023-07-20T05:59:10;10.02;;;8.80;;
44588;SDS011;30298;52.562;13.414;2023-07-20T06:01:36;13.20;;;10.00;;
44588;SDS011;30298;52.562;13.414;2023-07-20T06:04:01;11.30;;;8.85;;
44588;SDS011;30298;52.562;13.414;2023-07-20T06:06:28;13.80;;;9.60;;
44588;SDS011;30298;52.562;13.414;2023-07-20T06:08:53;10.27;;;8.40;;
44588;SDS011;30298;52.562;13.414;2023-07-20T06:11:19;10.88;;;6.50;;
44588;SDS011;30298;52.562;13.414;2023-07-20T06:13:45;6.72;;;6.13;;
44588;SDS011;30298;52.562;13.414;2023-07-20T06:16:10;7.82;;;6.30;;
44588;SDS011;30298;52.562;13.414;2023-07-20T06:18:36;7.45;;;6.00;;
44588;SDS011;30298;52.562;13.414;2023-07-20T06:21:01;8.40;;;5.70;;
44588;SDS011;30298;52.562;13.414;2023-07-20T06:23:26;8.60;;;6.80;;
44588;SDS011;30298;52.562;13.414;2023-07-20T06:25:51;7.70;;;5.40;;
44588;SDS011;30298;52.562;13.414;2023-07-20T06:28:16;6.37;;;5.77;;
44588;SDS011;30298;52.562;13.414;2023-07-20T06:33:08;6.10;;;3.88;;
44588;SDS011;30298;52.562;13.414;2023-07-20T06:35:33;5.83;;;4.23;;
44588;SDS011;30298;52.562;13.414;2023-07-20T06:37:59;4.85;;;4.25;;
44588;SDS011;30298;52.562;13.414;2023-07-20T06:40:25;5.78;;;4.20;;
44588;SDS011;30298;52.562;13.414;2023-07-20T06:42:50;5.97;;;3.92;;
44588;SDS011;30298;52.562;13.414;2023-07-20T06:45:16;6.30;;;4.63;;
44588;SDS011;30298;52.562;13.414;2023-07-20T06:47:41;5.10;;;4.00;;
44588;SDS011;30298;52.562;13.414;2023-07-20T06:50:06;5.47;;;4.28;;
44588;SDS011;30298;52.562;13.414;2023-07-20T06:52:32;4.20;;;3.80;;
44588;SDS011;30298;52.562;13.414;2023-07-20T06:54:57;4.53;;;3.40;;
44588;SDS011;30298;52.562;13.414;2023-07-20T06:57:22;5.63;;;3.20;;
44588;SDS011;30298;52.562;13.414;2023-07-20T06:59:48;3.77;;;2.70;;
44588;SDS011;30298;52.562;13.414;2023-07-20T07:02:13;4.55;;;3.20;;
44588;SDS011;30298;52.562;13.414;2023-07-20T07:04:40;3.47;;;2.53;;
44588;SDS011;30298;52.562;13.414;2023-07-20T07:07:06;4.38;;;2.80;;
44588;SDS011;30298;52.562;13.414;2023-07-20T07:09:31;3.45;;;3.13;;
44588;SDS011;30298;52.562;13.414;2023-07-20T07:11:56;3.03;;;2.60;;
44588;SDS011;30298;52.562;13.414;2023-07-20T07:14:22;5.13;;;2.95;;
44588;SDS011;30298;52.562;13.414;2023-07-20T07:16:47;4.65;;;3.40;;
44588;SDS011;30298;52.562;13.414;2023-07-20T07:19:13;3.75;;;3.05;;
44588;SDS011;30298;52.562;13.414;2023-07-20T07:21:38;3.53;;;2.87;;
44588;SDS011;30298;52.562;13.414;2023-07-20T07:24:03;7.18;;;2.85;;
44588;SDS011;30298;52.562;13.414;2023-07-20T07:28:59;3.05;;;2.60;;
44588;SDS011;30298;52.562;13.414;2023-07-20T07:31:25;4.22;;;2.40;;
44588;SDS011;30298;52.562;13.414;2023-07-20T07:33:53;3.90;;;2.60;;
44588;SDS011;30298;52.562;13.414;2023-07-20T07:36:18;3.42;;;2.63;;
44588;SDS011;30298;52.562;13.414;2023-07-20T07:38:44;3.58;;;2.60;;
44588;SDS011;30298;52.562;13.414;2023-07-20T07:41:12;3.25;;;2.22;;
44588;SDS011;30298;52.562;13.414;2023-07-20T07:43:38;2.70;;;2.08;;
44588;SDS011;30298;52.562;13.414;2023-07-20T07:46:03;2.20;;;2.00;;
44588;SDS011;30298;52.562;13.414;2023-07-20T07:48:29;3.13;;;1.92;;
44588;SDS011;30298;52.562;13.414;2023-07-20T07:50:54;2.67;;;1.80;;
44588;SDS011;30298;52.562;13.414;2023-07-20T07:53:19;2.67;;;1.92;;
44588;SDS011;30298;52.562;13.414;2023-07-20T07:55:45;3.28;;;2.00;;
44588;SDS011;30298;52.562;13.414;2023-07-20T07:58:12;2.22;;;1.80;;
44588;SDS011;30298;52.562;13.414;2023-07-20T08:00:37;4.25;;;1.90;;
44588;SDS011;30298;52.562;13.414;2023-07-20T08:03:02;2.20;;;1.80;;
44588;SDS011;30298;52.562;13.414;2023-07-20T08:07:53;4.20;;;1.80;;
44588;SDS011;30298;52.562;13.414;2023-07-20T08:12:43;2.97;;;1.77;;
44588;SDS011;30298;52.562;13.414;2023-07-20T08:15:10;3.20;;;1.80;;
44588;SDS011;30298;52.562;13.414;2023-07-20T08:17:35;2.30;;;2.05;;
44588;SDS011;30298;52.562;13.414;2023-07-20T08:20:01;1.83;;;1.60;;
44588;SDS011;30298;52.562;13.414;2023-07-20T08:22:26;1.88;;;1.60;;
44588;SDS011;30298;52.562;13.414;2023-07-20T08:27:16;2.13;;;1.52;;
44588;SDS011;30298;52.562;13.414;2023-07-20T08:29:42;2.95;;;1.42;;
44588;SDS011;30298;52.562;13.414;2023-07-20T08:32:07;3.17;;;1.77;;
44588;SDS011;30298;52.562;13.414;2023-07-20T08:36:58;2.00;;;1.50;;
44588;SDS011;30298;52.562;13.414;2023-07-20T08:39:23;1.95;;;1.50;;
44588;SDS011;30298;52.562;13.414;2023-07-20T08:44:14;3.17;;;1.45;;
44588;SDS011;30298;52.562;13.414;2023-07-20T08:46:40;6.47;;;1.65;;
44588;SDS011;30298;52.562;13.414;2023-07-20T08:49:06;1.95;;;1.48;;
44588;SDS011;30298;52.562;13.414;2023-07-20T08:51:31;4.78;;;2.13;;
44588;SDS011;30298;52.562;13.414;2023-07-20T08:53:58;1.60;;;1.30;;
44588;SDS011;30298;52.562;13.414;2023-07-20T08:56:24;2.60;;;1.40;;
44588;SDS011;30298;52.562;13.414;2023-07-20T08:58:50;1.50;;;1.30;;
44588;SDS011;30298;52.562;13.414;2023-07-20T09:01:16;1.92;;;1.45;;
44588;SDS011;30298;52.562;13.414;2023-07-20T09:06:08;2.35;;;1.40;;
44588;SDS011;30298;52.562;13.414;2023-07-20T09:08:33;1.80;;;1.60;;
44588;SDS011;30298;52.562;13.414;2023-07-20T09:11:02;1.67;;;1.30;;
44588;SDS011;30298;52.562;13.414;2023-07-20T09:13:31;2.63;;;1.48;;
44588;SDS011;30298;52.562;13.414;2023-07-20T09:15:57;2.30;;;1.50;;
44588;SDS011;30298;52.562;13.414;2023-07-20T09:18:23;2.58;;;1.40;;
44588;SDS011;30298;52.562;13.414;2023-07-20T09:23:14;2.47;;;1.20;;
44588;SDS011;30298;52.562;13.414;2023-07-20T09:28:05;1.52;;;1.25;;
44588;SDS011;30298;52.562;13.414;2023-07-20T09:32:55;3.42;;;1.92;;
44588;SDS011;30298;52.562;13.414;2023-07-20T09:37:58;1.60;;;1.40;;
44588;SDS011;30298;52.562;13.414;2023-07-20T09:40:24;2.38;;;1.30;;
44588;SDS011;30298;52.562;13.414;2023-07-20T09:42:50;1.80;;;1.35;;
44588;SDS011;30298;52.562;13.414;2023-07-20T09:45:16;1.65;;;1.23;;
44588;SDS011;30298;52.562;13.414;2023-07-20T09:47:42;1.92;;;1.50;;
44588;SDS011;30298;52.562;13.414;2023-07-20T09:52:42;1.60;;;1.40;;
44588;SDS011;30298;52.562;13.414;2023-07-20T09:55:09;2.58;;;1.85;;
44588;SDS011;30298;52.562;13.414;2023-07-20T09:57:36;2.10;;;1.45;;
44588;SDS011;30298;52.562;13.414;2023-07-20T10:00:05;2.67;;;1.40;;
44588;SDS011;30298;52.562;13.414;2023-07-20T10:02:41;1.70;;;1.50;;
44588;SDS011;30298;52.562;13.414;2023-07-20T10:05:07;1.50;;;1.40;;
44588;SDS011;30298;52.562;13.414;2023-07-20T10:07:35;1.50;;;1.25;;
44588;SDS011;30298;52.562;13.414;2023-07-20T10:10:01;1.90;;;1.60;;
44588;SDS011;30298;52.562;13.414;2023-07-20T10:12:28;1.88;;;1.50;;
44588;SDS011;30298;52.562;13.414;2023-07-20T10:17:19;2.67;;;1.57;;
44588;SDS011;30298;52.562;13.414;2023-07-20T10:19:49;4.97;;;1.40;;
44588;SDS011;30298;52.562;13.414;2023-07-20T10:22:22;3.05;;;1.70;;
44588;SDS011;30298;52.562;13.414;2023-07-20T10:24:49;1.95;;;1.60;;
44588;SDS011;30298;52.562;13.414;2023-07-20T10:27:15;2.25;;;1.60;;
44588;SDS011;30298;52.562;13.414;2023-07-20T10:29:40;2.23;;;1.50;;
44588;SDS011;30298;52.562;13.414;2023-07-20T10:32:06;4.32;;;1.50;;
44588;SDS011;30298;52.562;13.414;2023-07-20T10:34:32;2.17;;;1.30;;
44588;SDS011;30298;52.562;13.414;2023-07-20T10:36:58;2.70;;;1.40;;
44588;SDS011;30298;52.562;13.414;2023-07-20T10:39:24;2.28;;;1.40;;
44588;SDS011;30298;52.562;13.414;2023-07-20T10:41:59;2.22;;;1.50;;
44588;SDS011;30298;52.562;13.414;2023-07-20T10:44:24;2.00;;;1.30;;
44588;SDS011;30298;52.562;13.414;2023-07-20T10:46:49;1.67;;;1.40;;
44588;SDS011;30298;52.562;13.414;2023-07-20T10:49:15;2.27;;;1.40;;
44588;SDS011;30298;52.562;13.414;2023-07-20T10:56:40;2.65;;;1.50;;
44588;SDS011;30298;52.562;13.414;2023-07-20T10:59:16;4.45;;;1.40;;
44588;SDS011;30298;52.562;13.414;2023-07-20T11:01:43;2.65;;;1.63;;
44588;SDS011;30298;52.562;13.414;2023-07-20T11:04:09;2.85;;;1.40;;
44588;SDS011;30298;52.562;13.414;2023-07-20T11:09:05;3.75;;;1.30;;
44588;SDS011;30298;52.562;13.414;2023-07-20T11:11:32;1.88;;;1.30;;
44588;SDS011;30298;52.562;13.414;2023-07-20T11:18:48;2.28;;;1.25;;
44588;SDS011;30298;52.562;13.414;2023-07-20T11:23:39;3.50;;;1.42;;
44588;SDS011;30298;52.562;13.414;2023-07-20T11:28:30;2.40;;;1.40;;
44588;SDS011;30298;52.562;13.414;2023-07-20T11:33:20;2.58;;;1.30;;
44588;SDS011;30298;52.562;13.414;2023-07-20T11:38:15;1.98;;;1.30;;
44588;SDS011;30298;52.562;13.414;2023-07-20T11:43:06;3.08;;;1.20;;
44588;SDS011;30298;52.562;13.414;2023-07-20T11:47:58;1.38;;;1.10;;
44588;SDS011;30298;52.562;13.414;2023-07-20T11:52:48;4.28;;;1.30;;
44588;SDS011;30298;52.562;13.414;2023-07-20T11:57:39;1.73;;;1.20;;
44588;SDS011;30298;52.562;13.414;2023-07-20T12:02:37;1.88;;;1.20;;
44588;SDS011;30298;52.562;13.414;2023-07-20T12:05:04;2.75;;;1.30;;
44588;SDS011;30298;52.562;13.414;2023-07-20T12:10:08;2.75;;;1.20;;
44588;SDS011;30298;52.562;13.414;2023-07-20T12:12:34;1.70;;;1.20;;
44588;SDS011;30298;52.562;13.414;2023-07-20T12:15:16;1.60;;;1.23;;
44588;SDS011;30298;52.562;13.414;2023-07-20T12:17:42;3.10;;;1.38;;
44588;SDS011;30298;52.562;13.414;2023-07-20T12:20:07;1.83;;;1.40;;
44588;SDS011;30298;52.562;13.414;2023-07-20T12:22:37;2.47;;;1.52;;
44588;SDS011;30298;52.562;13.414;2023-07-20T12:25:05;1.52;;;1.30;;
44588;SDS011;30298;52.562;13.414;2023-07-20T12:27:30;1.48;;;1.27;;
44588;SDS011;30298;52.562;13.414;2023-07-20T12:29:56;2.33;;;1.20;;
44588;SDS011;30298;52.562;13.414;2023-07-20T12:32:22;1.70;;;1.20;;
44588;SDS011;30298;52.562;13.414;2023-07-20T12:34:47;2.88;;;1.30;;
44588;SDS011;30298;52.562;13.414;2023-07-20T12:39:38;2.00;;;1.30;;
44588;SDS011;30298;52.562;13.414;2023-07-20T12:44:29;1.73;;;1.35;;
44588;SDS011;30298;52.562;13.414;2023-07-20T12:49:19;1.95;;;1.27;;
44588;SDS011;30298;52.562;13.414;2023-07-20T12:54:10;1.63;;;1.07;;
44588;SDS011;30298;52.562;13.414;2023-07-20T12:59:01;2.28;;;1.10;;
44588;SDS011;30298;52.562;13.414;2023-07-20T13:01:27;1.92;;;1.35;;
44588;SDS011;30298;52.562;13.414;2023-07-20T13:06:19;2.00;;;1.23;;
44588;SDS011;30298;52.562;13.414;2023-07-20T13:11:10;1.75;;;1.10;;
44588;SDS011;30298;52.562;13.414;2023-07-20T13:16:00;1.63;;;1.08;;
44588;SDS011;30298;52.562;13.414;2023-07-20T13:20:50;1.70;;;1.07;;
44588;SDS011;30298;52.562;13.414;2023-07-20T13:25:41;3.33;;;2.10;;
44588;SDS011;30298;52.562;13.414;2023-07-20T13:28:07;3.00;;;1.10;;
44588;SDS011;30298;52.562;13.414;2023-07-20T13:32:58;1.30;;;1.00;;
44588;SDS011;30298;52.562;13.414;2023-07-20T13:37:48;1.45;;;1.10;;
44588;SDS011;30298;52.562;13.414;2023-07-20T13:40:15;2.05;;;1.10;;
44588;SDS011;30298;52.562;13.414;2023-07-20T13:42:42;4.07;;;1.10;;
44588;SDS011;30298;52.562;13.414;2023-07-20T13:45:07;1.65;;;1.10;;
44588;SDS011;30298;52.562;13.414;2023-07-20T13:47:33;1.92;;;1.10;;
44588;SDS011;30298;52.562;13.414;2023-07-20T13:49:58;1.88;;;1.30;;
44588;SDS011;30298;52.562;13.414;2023-07-20T13:52:23;1.90;;;1.02;;
44588;SDS011;30298;52.562;13.414;2023-07-20T13:54:48;1.33;;;0.95;;
44588;SDS011;30298;52.562;13.414;2023-07-20T13:57:14;2.15;;;1.00;;
44588;SDS011;30298;52.562;13.414;2023-07-20T13:59:40;2.25;;;1.30;;
44588;SDS011;30298;52.562;13.414;2023-07-20T14:02:05;2.58;;;1.10;;
44588;SDS011;30298;52.562;13.414;2023-07-20T14:04:31;3.40;;;1.15;;
44588;SDS011;30298;52.562;13.414;2023-07-20T14:06:56;2.30;;;1.30;;
44588;SDS011;30298;52.562;13.414;2023-07-20T14:11:46;1.67;;;1.17;;
44588;SDS011;30298;52.562;13.414;2023-07-20T14:16:40;1.52;;;1.10;;
44588;SDS011;30298;52.562;13.414;2023-07-20T14:19:06;8.52;;;1.50;;
44588;SDS011;30298;52.562;13.414;2023-07-20T14:21:31;3.05;;;1.23;;
44588;SDS011;30298;52.562;13.414;2023-07-20T14:26:23;1.23;;;0.98;;
44588;SDS011;30298;52.562;13.414;2023-07-20T14:28:48;1.45;;;1.10;;
44588;SDS011;30298;52.562;13.414;2023-07-20T14:31:13;2.80;;;1.20;;
44588;SDS011;30298;52.562;13.414;2023-07-20T14:33:39;7.07;;;4.82;;
44588;SDS011;30298;52.562;13.414;2023-07-20T14:36:04;2.03;;;1.20;;
44588;SDS011;30298;52.562;13.414;2023-07-20T14:38:33;1.20;;;1.00;;
44588;SDS011;30298;52.562;13.414;2023-07-20T14:40:58;2.15;;;1.10;;
44588;SDS011;30298;52.562;13.414;2023-07-20T14:43:23;2.65;;;1.20;;
44588;SDS011;30298;52.562;13.414;2023-07-20T14:45:49;2.78;;;1.20;;
44588;SDS011;30298;52.562;13.414;2023-07-20T14:48:14;1.55;;;1.02;;
44588;SDS011;30298;52.562;13.414;2023-07-20T14:53:05;3.00;;;1.35;;
44588;SDS011;30298;52.562;13.414;2023-07-20T14:55:30;1.77;;;1.30;;
44588;SDS011;30298;52.562;13.414;2023-07-20T15:00:20;3.10;;;1.30;;
44588;SDS011;30298;52.562;13.414;2023-07-20T15:02:46;2.15;;;1.40;;
44588;SDS011;30298;52.562;13.414;2023-07-20T15:05:11;2.17;;;1.30;;
44588;SDS011;30298;52.562;13.414;2023-07-20T15:10:02;1.63;;;1.10;;
44588;SDS011;30298;52.562;13.414;2023-07-20T15:12:28;5.13;;;2.00;;
44588;SDS011;30298;52.562;13.414;2023-07-20T15:17:19;2.80;;;1.60;;
44588;SDS011;30298;52.562;13.414;2023-07-20T15:19:44;3.20;;;1.48;;
44588;SDS011;30298;52.562;13.414;2023-07-20T15:22:10;2.92;;;1.33;;
44588;SDS011;30298;52.562;13.414;2023-07-20T15:24:35;2.08;;;1.13;;
44588;SDS011;30298;52.562;13.414;2023-07-20T15:27:01;2.08;;;1.60;;
44588;SDS011;30298;52.562;13.414;2023-07-20T15:29:27;3.35;;;1.27;;
44588;SDS011;30298;52.562;13.414;2023-07-20T15:31:53;2.83;;;1.13;;
44588;SDS011;30298;52.562;13.414;2023-07-20T15:34:18;2.10;;;1.23;;
44588;SDS011;30298;52.562;13.414;2023-07-20T15:36:44;1.95;;;1.50;;
44588;SDS011;30298;52.562;13.414;2023-07-20T15:39:09;2.30;;;1.20;;
44588;SDS011;30298;52.562;13.414;2023-07-20T15:41:35;3.05;;;1.20;;
44588;SDS011;30298;52.562;13.414;2023-07-20T15:49:06;3.70;;;1.40;;
44588;SDS011;30298;52.562;13.414;2023-07-20T15:51:33;3.97;;;2.60;;
44588;SDS011;30298;52.562;13.414;2023-07-20T15:54:01;3.45;;;1.40;;
44588;SDS011;30298;52.562;13.414;2023-07-20T15:56:27;2.88;;;1.20;;
44588;SDS011;30298;52.562;13.414;2023-07-20T16:01:18;3.28;;;1.50;;
44588;SDS011;30298;52.562;13.414;2023-07-20T16:06:08;3.90;;;1.40;;
44588;SDS011;30298;52.562;13.414;2023-07-20T16:10:58;3.87;;;1.47;;
44588;SDS011;30298;52.562;13.414;2023-07-20T16:15:49;2.20;;;1.40;;
44588;SDS011;30298;52.562;13.414;2023-07-20T16:18:15;2.85;;;1.65;;
44588;SDS011;30298;52.562;13.414;2023-07-20T16:23:05;3.28;;;1.60;;
44588;SDS011;30298;52.562;13.414;2023-07-20T16:27:56;4.37;;;1.40;;
44588;SDS011;30298;52.562;13.414;2023-07-20T16:32:46;2.00;;;1.40;;
44588;SDS011;30298;52.562;13.414;2023-07-20T16:37:37;1.90;;;1.48;;
44588;SDS011;30298;52.562;13.414;2023-07-20T16:40:07;2.78;;;1.83;;
44588;SDS011;30298;52.562;13.414;2023-07-20T16:42:34;3.30;;;1.83;;
44588;SDS011;30298;52.562;13.414;2023-07-20T16:47:24;5.22;;;1.60;;
44588;SDS011;30298;52.562;13.414;2023-07-20T16:52:15;4.75;;;1.50;;
44588;SDS011;30298;52.562;13.414;2023-07-20T16:57:06;4.80;;;1.60;;
44588;SDS011;30298;52.562;13.414;2023-07-20T16:59:32;3.50;;;1.70;;
44588;SDS011;30298;52.562;13.414;2023-07-20T17:04:23;3.92;;;1.40;;
44588;SDS011;30298;52.562;13.414;2023-07-20T17:09:13;5.30;;;1.50;;
44588;SDS011;30298;52.562;13.414;2023-07-20T17:11:39;3.78;;;1.50;;
44588;SDS011;30298;52.562;13.414;2023-07-20T17:16:30;2.85;;;1.60;;
44588;SDS011;30298;52.562;13.414;2023-07-20T17:21:21;3.35;;;1.80;;
44588;SDS011;30298;52.562;13.414;2023-07-20T17:26:11;2.10;;;1.30;;
44588;SDS011;30298;52.562;13.414;2023-07-20T17:31:02;2.13;;;1.43;;